createdAt,value
2023-11-19T00:01:52.027Z,95.13
2023-11-19T00:04:18.715Z,94.88
2023-11-19T00:06:45.392Z,95.14
2023-11-19T00:09:12.944Z,95.09
2023-11-19T00:11:39.463Z,95.01
2023-11-19T00:14:09.648Z,95.09
2023-11-19T00:16:36.264Z,95.08
2023-11-19T00:19:02.795Z,95.00
2023-11-19T00:21:29.792Z,95.05
2023-11-19T00:23:56.749Z,94.80
2023-11-19T00:26:23.249Z,94.97
2023-11-19T00:28:49.871Z,94.86
2023-11-19T00:31:16.571Z,95.05
2023-11-19T00:36:12.738Z,95.08
2023-11-19T00:38:39.284Z,94.93
2023-11-19T00:41:05.947Z,95.00
2023-11-19T00:43:32.452Z,95.05
2023-11-19T00:45:59.167Z,94.94
2023-11-19T00:48:25.842Z,95.03
2023-11-19T00:50:52.355Z,95.09
2023-11-19T00:53:18.845Z,95.03
2023-11-19T00:55:47.337Z,95.00
2023-11-19T00:58:14.189Z,95.06
2023-11-19T01:00:41.053Z,95.16
2023-11-19T01:03:08.488Z,95.19
2023-11-19T01:05:35.137Z,94.99
2023-11-19T01:08:01.809Z,95.12
2023-11-19T01:10:29.955Z,94.99
2023-11-19T01:12:56.528Z,95.13
2023-11-19T01:15:24.003Z,95.20
2023-11-19T01:17:54.045Z,95.19
2023-11-19T01:20:21.518Z,95.05
2023-11-19T01:22:50.082Z,95.07
2023-11-19T01:25:17.154Z,95.35
2023-11-19T01:27:43.867Z,95.14
2023-11-19T01:30:14.193Z,95.14
2023-11-19T01:32:41.714Z,95.14
2023-11-19T01:35:11.703Z,95.43
2023-11-19T01:37:38.240Z,95.16
2023-11-19T01:40:06.234Z,95.43
2023-11-19T01:42:38.728Z,95.19
2023-11-19T01:45:08.255Z,95.13
2023-11-19T01:47:36.076Z,95.45
2023-11-19T01:50:07.131Z,95.22
2023-11-19T01:52:38.014Z,95.28
2023-11-19T01:55:05.451Z,95.12
2023-11-19T01:57:32.129Z,95.09
2023-11-19T01:59:59.323Z,95.25
2023-11-19T02:02:27.493Z,95.39
2023-11-19T02:04:54.651Z,95.24
2023-11-19T02:07:21.869Z,95.11
2023-11-19T02:09:48.561Z,95.15
2023-11-19T02:12:15.472Z,95.29
2023-11-19T02:14:42.041Z,95.14
2023-11-19T02:17:09.465Z,95.28
2023-11-19T02:19:35.955Z,95.22
2023-11-19T02:22:02.523Z,95.16
2023-11-19T02:24:32.632Z,95.20
2023-11-19T02:27:08.383Z,95.29
2023-11-19T02:29:36.091Z,95.32
2023-11-19T02:32:03.205Z,95.28
2023-11-19T02:34:29.828Z,95.18
2023-11-19T02:36:56.362Z,95.34
2023-11-19T02:39:22.987Z,95.22
2023-11-19T02:41:52.740Z,95.06
2023-11-19T02:44:19.222Z,95.22
2023-11-19T02:46:45.885Z,95.19
2023-11-19T02:49:12.438Z,95.15
2023-11-19T02:51:39.667Z,95.03
2023-11-19T02:54:06.284Z,95.21
2023-11-19T02:56:36.901Z,95.22
2023-11-19T02:59:15.729Z,95.16
2023-11-19T03:01:45.125Z,95.11
2023-11-19T03:04:13.578Z,95.24
2023-11-19T03:06:40.295Z,94.97
2023-11-19T03:09:11.431Z,95.07
2023-11-19T03:11:38.390Z,95.14
2023-11-19T03:14:04.912Z,95.14
2023-11-19T03:16:31.625Z,95.05
2023-11-19T03:18:58.340Z,95.08
2023-11-19T03:21:32.272Z,94.98
2023-11-19T03:24:02.249Z,94.98
2023-11-19T03:26:28.750Z,95.04
2023-11-19T03:28:55.508Z,94.85
2023-11-19T03:31:22.171Z,94.96
2023-11-19T03:33:48.872Z,94.97
2023-11-19T03:36:15.476Z,95.19
2023-11-19T03:38:43.857Z,94.99
2023-11-19T03:41:14.988Z,94.89
2023-11-19T03:43:42.447Z,94.93
2023-11-19T03:46:21.951Z,94.90
2023-11-19T03:48:49.813Z,94.90
2023-11-19T03:51:16.482Z,94.90
2023-11-19T03:53:46.836Z,94.77
2023-11-19T03:56:13.703Z,94.97
2023-11-19T03:58:40.510Z,94.72
2023-11-19T04:01:12.023Z,94.84
2023-11-19T04:06:16.905Z,94.69
2023-11-19T04:08:43.424Z,94.69
2023-11-19T04:11:09.983Z,94.62
2023-11-19T04:13:36.518Z,94.74
2023-11-19T04:16:03.304Z,94.60
2023-11-19T04:18:29.894Z,94.74
2023-11-19T04:20:56.499Z,94.52
2023-11-19T04:23:23.027Z,94.48
2023-11-19T04:25:49.671Z,94.54
2023-11-19T04:28:16.213Z,94.39
2023-11-19T04:30:42.948Z,94.49
2023-11-19T04:33:09.528Z,94.33
2023-11-19T04:35:36.138Z,94.49
2023-11-19T04:38:02.700Z,94.26
2023-11-19T04:40:29.254Z,94.32
2023-11-19T04:42:55.818Z,94.28
2023-11-19T04:45:22.408Z,94.23
2023-11-19T04:47:48.950Z,94.33
2023-11-19T04:50:15.555Z,94.27
2023-11-19T04:52:43.340Z,94.11
2023-11-19T04:55:12.758Z,94.17
2023-11-19T04:57:39.483Z,94.29
2023-11-19T05:00:17.019Z,94.21
2023-11-19T05:02:44.295Z,94.09
2023-11-19T05:05:11.175Z,94.10
2023-11-19T05:07:37.867Z,94.19
2023-11-19T05:10:05.670Z,94.15
2023-11-19T05:12:32.632Z,94.10
2023-11-19T05:14:59.208Z,93.97
2023-11-19T05:17:25.795Z,94.12
2023-11-19T05:19:52.372Z,94.08
2023-11-19T05:22:18.937Z,94.15
2023-11-19T05:24:45.682Z,93.91
2023-11-19T05:27:12.440Z,94.10
2023-11-19T05:29:40.306Z,94.01
2023-11-19T05:32:06.880Z,93.98
2023-11-19T05:34:33.430Z,93.99
2023-11-19T05:36:59.951Z,93.96
2023-11-19T05:39:26.923Z,93.87
2023-11-19T05:41:53.464Z,93.89
2023-11-19T05:44:20.408Z,93.89
2023-11-19T05:46:47.130Z,93.84
2023-11-19T05:49:14.482Z,93.83
2023-11-19T05:51:41.786Z,93.86
2023-11-19T05:54:09.849Z,93.79
2023-11-19T05:56:36.968Z,93.66
2023-11-19T05:59:15.614Z,93.74
2023-11-19T06:01:42.861Z,93.70
2023-11-19T06:04:09.504Z,93.61
2023-11-19T06:06:36.049Z,93.65
2023-11-19T06:09:13.324Z,93.64
2023-11-19T06:11:40.323Z,93.52
2023-11-19T06:14:08.364Z,93.58
2023-11-19T06:16:35.029Z,93.49
2023-11-19T06:19:01.804Z,93.45
2023-11-19T06:21:28.553Z,93.40
2023-11-19T06:23:55.685Z,93.50
2023-11-19T06:26:23.384Z,93.37
2023-11-19T06:28:49.993Z,93.46
2023-11-19T06:31:17.385Z,93.37
2023-11-19T06:33:44.427Z,93.40
2023-11-19T06:36:11.615Z,93.35
2023-11-19T06:38:38.223Z,93.25
2023-11-19T06:41:10.443Z,93.24
2023-11-19T06:46:16.147Z,93.38
2023-11-19T06:48:45.034Z,93.38
2023-11-19T06:51:12.450Z,93.21
2023-11-19T06:53:40.717Z,93.32
2023-11-19T06:56:18.507Z,93.19
2023-11-19T06:58:45.055Z,93.18
2023-11-19T07:01:12.030Z,93.04
2023-11-19T07:03:38.686Z,93.16
2023-11-19T07:06:06.542Z,93.03
2023-11-19T07:08:33.180Z,93.27
2023-11-19T07:10:59.838Z,93.15
2023-11-19T07:13:28.928Z,93.03
2023-11-19T07:15:57.574Z,92.99
2023-11-19T07:18:24.181Z,93.00
2023-11-19T07:20:50.782Z,92.98
2023-11-19T07:23:17.674Z,93.05
2023-11-19T07:25:47.829Z,93.03
2023-11-19T07:28:15.580Z,93.08
2023-11-19T07:30:42.700Z,93.05
2023-11-19T07:33:09.463Z,93.09
2023-11-19T07:35:36.360Z,93.49
2023-11-19T07:38:03.446Z,93.83
2023-11-19T07:40:30.010Z,95.78
2023-11-19T07:42:56.556Z,93.92
2023-11-19T07:45:23.118Z,93.52
2023-11-19T07:47:49.753Z,93.98
2023-11-19T07:50:18.023Z,93.79
2023-11-19T07:52:44.667Z,93.79
2023-11-19T07:55:11.256Z,93.93
2023-11-19T07:57:37.783Z,93.79
2023-11-19T08:00:05.279Z,93.68
2023-11-19T08:02:32.111Z,93.82
2023-11-19T08:04:58.965Z,94.06
2023-11-19T08:07:25.549Z,94.49
2023-11-19T08:09:52.046Z,94.49
2023-11-19T08:12:18.789Z,94.72
2023-11-19T08:14:45.815Z,94.56
2023-11-19T08:17:12.370Z,94.31
2023-11-19T08:19:38.977Z,94.10
2023-11-19T08:22:05.509Z,94.28
2023-11-19T08:24:32.084Z,94.31
2023-11-19T08:29:28.986Z,94.24
2023-11-19T08:31:55.509Z,94.16
2023-11-19T08:34:22.092Z,94.06
2023-11-19T08:36:52.193Z,94.08
2023-11-19T08:39:18.713Z,94.01
2023-11-19T08:41:45.446Z,93.90
2023-11-19T08:44:12.040Z,93.83
2023-11-19T08:46:38.590Z,93.73
2023-11-19T08:49:06.458Z,93.88
2023-11-19T08:51:32.957Z,93.76
2023-11-19T08:53:59.480Z,93.41
2023-11-19T08:56:26.417Z,93.30
2023-11-19T08:58:52.918Z,93.26
2023-11-19T09:01:19.520Z,93.34
2023-11-19T09:03:46.268Z,93.35
2023-11-19T09:06:13.312Z,93.45
2023-11-19T09:08:39.925Z,93.36
2023-11-19T09:11:09.626Z,93.44
2023-11-19T09:13:37.165Z,93.34
2023-11-19T09:16:04.862Z,93.27
2023-11-19T09:18:32.993Z,93.19
2023-11-19T09:20:59.626Z,93.30
2023-11-19T09:23:26.454Z,93.52
2023-11-19T09:25:53.118Z,93.41
2023-11-19T09:28:19.625Z,93.38
2023-11-19T09:30:46.170Z,93.38
2023-11-19T09:33:12.802Z,93.33
2023-11-19T09:35:39.354Z,93.34
2023-11-19T09:38:06.632Z,92.93
2023-11-19T09:40:33.284Z,92.79
2023-11-19T09:43:00.657Z,92.45
2023-11-19T09:45:29.135Z,92.75
2023-11-19T09:47:58.447Z,92.73
2023-11-19T09:50:25.097Z,92.74
2023-11-19T09:52:51.929Z,92.50
2023-11-19T09:55:18.757Z,92.61
2023-11-19T09:57:46.549Z,92.72
2023-11-19T10:00:16.793Z,92.68
2023-11-19T10:02:47.515Z,92.75
2023-11-19T10:05:16.086Z,92.65
2023-11-19T10:07:43.853Z,92.62
2023-11-19T10:10:11.964Z,92.46
2023-11-19T10:12:38.584Z,92.48
2023-11-19T10:15:08.240Z,92.36
2023-11-19T10:17:35.879Z,92.35
2023-11-19T10:20:02.521Z,92.47
2023-11-19T10:22:29.235Z,92.47
2023-11-19T10:24:56.876Z,92.30
2023-11-19T10:27:26.755Z,92.01
2023-11-19T10:29:53.447Z,92.01
2023-11-19T10:32:25.628Z,91.92
2023-11-19T10:35:05.921Z,91.68
2023-11-19T10:37:34.334Z,91.61
2023-11-19T10:40:01.150Z,91.42
2023-11-19T10:42:27.800Z,91.57
2023-11-19T10:44:54.425Z,91.57
2023-11-19T10:47:38.051Z,91.68
2023-11-19T10:50:07.375Z,91.56
2023-11-19T10:52:34.577Z,91.42
2023-11-19T10:55:02.781Z,91.48
2023-11-19T10:57:34.079Z,91.43
2023-11-19T11:00:04.703Z,91.33
2023-11-19T11:02:37.023Z,91.30
2023-11-19T11:05:04.632Z,91.37
2023-11-19T11:07:39.647Z,91.24
2023-11-19T11:10:10.759Z,91.32
2023-11-19T11:12:43.328Z,91.36
2023-11-19T11:15:13.532Z,91.45
2023-11-19T11:17:43.567Z,91.30
2023-11-19T11:20:11.003Z,91.20
2023-11-19T11:23:04.208Z,91.40
2023-11-19T11:25:51.105Z,91.14
2023-11-19T11:28:44.460Z,91.26
2023-11-19T11:31:26.696Z,91.26
2023-11-19T11:34:20.632Z,91.09
2023-11-19T11:37:11.125Z,91.42
2023-11-19T11:39:38.018Z,91.86
2023-11-19T11:42:29.227Z,91.97
2023-11-19T11:45:09.284Z,91.90
2023-11-19T11:47:45.964Z,91.66
2023-11-19T11:50:20.549Z,92.13
2023-11-19T11:52:59.586Z,91.69
2023-11-19T11:55:29.864Z,91.77
2023-11-19T11:57:56.833Z,91.65
2023-11-19T12:00:27.738Z,91.80
2023-11-19T12:02:58.339Z,91.78
2023-11-19T12:05:25.093Z,91.86
2023-11-19T12:08:02.248Z,92.09
2023-11-19T12:10:33.452Z,92.10
2023-11-19T12:13:01.262Z,92.00
2023-11-19T12:15:28.886Z,92.21
2023-11-19T12:17:56.308Z,92.01
2023-11-19T12:22:54.958Z,91.99
2023-11-19T12:25:23.139Z,91.65
2023-11-19T12:27:52.025Z,91.22
2023-11-19T12:30:28.304Z,91.26
2023-11-19T12:32:55.926Z,91.11
2023-11-19T12:35:23.769Z,91.19
2023-11-19T12:37:51.968Z,90.95
2023-11-19T12:40:20.902Z,90.77
2023-11-19T12:42:47.931Z,90.59
2023-11-19T12:45:15.565Z,90.41
2023-11-19T12:47:42.291Z,90.44
2023-11-19T12:50:10.180Z,90.16
2023-11-19T12:52:37.521Z,89.97
2023-11-19T12:55:30.097Z,89.82
2023-11-19T12:57:59.242Z,89.56
2023-11-19T13:00:28.497Z,89.55
2023-11-19T13:02:57.162Z,89.48
2023-11-19T13:05:23.843Z,89.30
2023-11-19T13:07:50.392Z,88.96
2023-11-19T13:10:18.774Z,88.62
2023-11-19T13:13:07.554Z,88.70
2023-11-19T13:15:34.876Z,89.37
2023-11-19T13:18:02.584Z,89.22
2023-11-19T13:20:29.760Z,89.39
2023-11-19T13:23:01.996Z,89.57
2023-11-19T13:25:29.522Z,89.44
2023-11-19T13:27:56.596Z,89.68
2023-11-19T13:32:56.515Z,89.94
2023-11-19T13:35:28.726Z,89.75
2023-11-19T13:37:55.256Z,89.95
2023-11-19T13:40:23.525Z,89.95
2023-11-19T13:42:50.188Z,89.82
2023-11-19T13:45:18.811Z,90.18
2023-11-19T13:47:46.437Z,89.83
2023-11-19T13:50:15.784Z,90.31
2023-11-19T13:52:46.255Z,90.04
2023-11-19T13:55:13.593Z,90.20
2023-11-19T13:57:41.509Z,90.15
2023-11-19T14:00:24.946Z,90.36
2023-11-19T14:02:51.750Z,90.61
2023-11-19T14:05:37.828Z,90.48
2023-11-19T14:08:19.617Z,90.50
2023-11-19T14:10:50.747Z,90.81
2023-11-19T14:13:17.309Z,91.22
2023-11-19T14:15:44.763Z,91.50
2023-11-19T14:18:12.557Z,91.11
2023-11-19T14:20:40.597Z,91.07
2023-11-19T14:23:07.106Z,91.46
2023-11-19T14:25:33.717Z,91.47
2023-11-19T14:28:02.330Z,91.39
2023-11-19T14:30:29.937Z,91.45
2023-11-19T14:32:56.658Z,91.53
2023-11-19T14:35:23.744Z,91.52
2023-11-19T14:37:50.304Z,91.79
2023-11-19T14:40:16.879Z,91.67
2023-11-19T14:42:44.122Z,91.99
2023-11-19T14:45:13.407Z,91.67
2023-11-19T14:47:40.237Z,91.78
2023-11-19T14:50:08.007Z,91.76
2023-11-19T14:52:36.541Z,91.84
2023-11-19T14:55:03.718Z,91.71
2023-11-19T14:57:30.625Z,91.74
2023-11-19T14:59:57.328Z,91.69
2023-11-19T15:02:23.956Z,91.65
2023-11-19T15:04:50.571Z,91.65
2023-11-19T15:07:17.202Z,91.88
2023-11-19T15:09:43.760Z,92.01
2023-11-19T15:12:10.635Z,91.64
2023-11-19T15:14:37.337Z,91.72
2023-11-19T15:17:04.221Z,91.68
2023-11-19T15:19:30.861Z,91.58
2023-11-19T15:21:57.999Z,91.38
2023-11-19T15:24:26.459Z,91.63
2023-11-19T15:26:53.377Z,91.42
2023-11-19T15:29:20.305Z,91.38
2023-11-19T15:31:47.450Z,91.33
2023-11-19T15:34:14.608Z,91.07
2023-11-19T15:36:41.149Z,91.25
2023-11-19T15:39:07.787Z,91.12
2023-11-19T15:41:34.462Z,91.18
2023-11-19T15:44:01.182Z,91.02
2023-11-19T15:46:27.824Z,91.03
2023-11-19T15:48:54.365Z,90.98
2023-11-19T15:51:20.903Z,90.99
2023-11-19T15:53:47.700Z,90.65
2023-11-19T15:56:14.946Z,90.45
2023-11-19T15:58:41.670Z,89.99
2023-11-19T16:01:11.665Z,89.99
2023-11-19T16:06:10.347Z,94.58
2023-11-19T16:08:39.559Z,94.17
2023-11-19T16:11:07.212Z,95.29
2023-11-19T16:13:33.932Z,95.98
2023-11-19T16:16:00.437Z,96.60
2023-11-19T16:18:28.873Z,98.62
2023-11-19T16:20:56.418Z,98.41
2023-11-19T16:23:23.052Z,96.01
2023-11-19T16:25:51.032Z,95.00
2023-11-19T16:28:18.463Z,96.25
2023-11-19T16:30:45.070Z,95.69
2023-11-19T16:33:17.280Z,95.20
2023-11-19T16:35:51.419Z,94.00
2023-11-19T16:38:18.023Z,93.50
2023-11-19T16:40:45.199Z,93.06
2023-11-19T16:43:12.012Z,92.80
2023-11-19T16:45:38.740Z,92.33
2023-11-19T16:48:05.917Z,92.06
2023-11-19T16:50:32.889Z,91.65
2023-11-19T16:53:01.292Z,91.55
2023-11-19T16:55:28.221Z,91.23
2023-11-19T16:57:55.305Z,91.05
2023-11-19T17:00:22.523Z,90.51
2023-11-19T17:02:51.690Z,90.39
2023-11-19T17:05:19.034Z,90.17
2023-11-19T17:07:48.094Z,89.83
2023-11-19T17:10:16.219Z,89.76
2023-11-19T17:12:42.961Z,89.38
2023-11-19T17:15:11.903Z,89.46
2023-11-19T17:17:39.253Z,89.31
2023-11-19T17:20:07.893Z,89.55
2023-11-19T17:22:35.868Z,89.84
2023-11-19T17:25:04.149Z,89.74
2023-11-19T17:27:31.603Z,89.88
2023-11-19T17:29:59.026Z,89.72
2023-11-19T17:32:26.500Z,89.55
2023-11-19T17:34:54.531Z,89.81
2023-11-19T17:37:21.145Z,89.77
2023-11-19T17:39:48.020Z,89.64
2023-11-19T17:42:14.859Z,89.50
2023-11-19T17:44:41.749Z,89.36
2023-11-19T17:47:09.572Z,89.67
2023-11-19T17:49:36.545Z,89.91
2023-11-19T17:52:03.291Z,89.76
2023-11-19T17:54:30.588Z,89.79
2023-11-19T17:56:58.309Z,90.03
2023-11-19T17:59:26.297Z,90.08
2023-11-19T18:01:57.829Z,90.28
2023-11-19T18:04:26.927Z,90.42
2023-11-19T18:06:54.075Z,90.41
2023-11-19T18:09:20.955Z,90.30
2023-11-19T18:11:48.604Z,90.55
2023-11-19T18:14:15.220Z,90.78
2023-11-19T18:16:41.792Z,90.99
2023-11-19T18:19:08.521Z,90.15
2023-11-19T18:21:35.133Z,90.50
2023-11-19T18:24:01.952Z,90.65
2023-11-19T18:28:58.306Z,90.56
2023-11-19T18:31:25.964Z,90.38
2023-11-19T18:33:52.939Z,90.03
2023-11-19T18:36:19.555Z,90.29
2023-11-19T18:38:46.283Z,90.19
2023-11-19T18:41:14.410Z,90.37
2023-11-19T18:43:41.746Z,90.20
2023-11-19T18:46:09.748Z,90.20
2023-11-19T18:48:37.426Z,89.71
2023-11-19T18:51:04.590Z,89.97
2023-11-19T18:53:31.662Z,89.73
2023-11-19T18:55:58.352Z,89.92
2023-11-19T18:58:25.184Z,89.63
2023-11-19T19:00:51.912Z,89.74
2023-11-19T19:03:23.217Z,89.37
2023-11-19T19:05:50.829Z,89.57
2023-11-19T19:08:18.161Z,89.27
2023-11-19T19:10:46.029Z,89.34
2023-11-19T19:13:13.047Z,89.73
2023-11-19T19:15:39.946Z,89.33
2023-11-19T19:18:07.306Z,89.67
2023-11-19T19:20:34.687Z,89.66
2023-11-19T19:23:02.059Z,89.49
2023-11-19T19:25:31.531Z,89.39
2023-11-19T19:28:22.589Z,89.04
2023-11-19T19:30:45.738Z,89.32
2023-11-19T19:33:15.564Z,89.33
2023-11-19T19:35:42.208Z,89.55
2023-11-19T19:38:10.640Z,89.38
2023-11-19T19:40:37.266Z,89.46
2023-11-19T19:43:05.404Z,89.72
2023-11-19T19:45:33.139Z,89.83
2023-11-19T19:48:00.035Z,90.04
2023-11-19T19:50:26.953Z,89.69
2023-11-19T19:52:53.619Z,89.79
2023-11-19T19:55:22.330Z,90.12
2023-11-19T19:57:49.289Z,89.90
2023-11-19T20:00:17.593Z,89.88
2023-11-19T20:02:45.852Z,89.70
2023-11-19T20:05:13.676Z,89.76
2023-11-19T20:07:41.796Z,89.99
2023-11-19T20:10:11.591Z,89.82
2023-11-19T20:12:39.266Z,89.94
2023-11-19T20:15:07.411Z,90.20
2023-11-19T20:17:34.010Z,89.95
2023-11-19T20:20:02.101Z,90.29
2023-11-19T20:22:28.712Z,90.12
2023-11-19T20:24:55.440Z,90.11
2023-11-19T20:27:22.056Z,90.08
2023-11-19T20:29:49.075Z,89.94
2023-11-19T20:32:15.851Z,90.01
2023-11-19T20:34:43.094Z,90.08
2023-11-19T20:37:09.820Z,89.95
2023-11-19T20:39:36.541Z,89.96
2023-11-19T20:42:05.387Z,90.22
2023-11-19T20:44:32.522Z,90.20
2023-11-19T20:47:01.094Z,90.02
2023-11-19T20:49:27.868Z,90.17
2023-11-19T20:51:54.427Z,90.02
2023-11-19T20:54:39.698Z,90.05
2023-11-19T20:57:06.672Z,90.14
2023-11-19T20:59:34.070Z,89.93
2023-11-19T21:02:00.743Z,89.84
2023-11-19T21:04:27.683Z,89.58
2023-11-19T21:06:55.161Z,89.65
2023-11-19T21:09:24.183Z,89.58
2023-11-19T21:11:51.443Z,89.48
2023-11-19T21:14:19.260Z,89.45
2023-11-19T21:16:46.066Z,89.57
2023-11-19T21:19:12.869Z,89.39
2023-11-19T21:21:41.299Z,89.40
2023-11-19T21:24:10.682Z,89.51
2023-11-19T21:26:37.699Z,89.56
2023-11-19T21:29:04.289Z,89.42
2023-11-19T21:31:31.026Z,89.64
2023-11-19T21:33:58.571Z,89.49
2023-11-19T21:36:25.812Z,89.55
2023-11-19T21:38:52.564Z,89.48
2023-11-19T21:41:19.108Z,89.56
2023-11-19T21:46:18.478Z,89.74
2023-11-19T21:48:45.044Z,89.85
2023-11-19T21:51:11.595Z,89.68
2023-11-19T21:53:39.289Z,89.72
2023-11-19T21:58:35.910Z,89.97
2023-11-19T22:01:02.652Z,89.96
2023-11-19T22:03:29.476Z,89.94
2023-11-19T22:05:56.061Z,89.85
2023-11-19T22:08:22.589Z,89.90
2023-11-19T22:10:49.222Z,89.90
2023-11-19T22:13:15.739Z,90.00
2023-11-19T22:15:42.424Z,90.08
2023-11-19T22:18:11.425Z,90.05
2023-11-19T22:20:38.977Z,90.16
2023-11-19T22:23:05.506Z,89.96
2023-11-19T22:25:32.072Z,90.23
2023-11-19T22:27:58.684Z,90.16
2023-11-19T22:30:25.300Z,90.36
2023-11-19T22:32:52.410Z,90.31
2023-11-19T22:35:19.081Z,90.27
2023-11-19T22:37:45.692Z,90.10
2023-11-19T22:40:13.286Z,90.26
2023-11-19T22:42:40.180Z,90.46
2023-11-19T22:45:07.614Z,90.44
2023-11-19T22:47:34.670Z,90.31
2023-11-19T22:50:01.267Z,90.52
2023-11-19T22:52:27.925Z,90.35
2023-11-19T22:54:54.791Z,90.34
2023-11-19T22:57:21.587Z,90.48
2023-11-19T22:59:48.191Z,90.36
2023-11-19T23:02:14.766Z,90.53
2023-11-19T23:04:41.347Z,90.70
2023-11-19T23:07:07.957Z,90.47
2023-11-19T23:09:34.660Z,90.63
2023-11-19T23:12:01.256Z,90.64
2023-11-19T23:14:27.912Z,90.61
2023-11-19T23:16:54.726Z,90.55
2023-11-19T23:19:21.454Z,90.70
2023-11-19T23:21:48.097Z,90.66
2023-11-19T23:24:14.770Z,90.61
2023-11-19T23:26:42.663Z,90.70
2023-11-19T23:29:15.124Z,90.71
2023-11-19T23:31:45.062Z,90.84
2023-11-19T23:34:11.534Z,90.93
2023-11-19T23:36:38.099Z,90.91
2023-11-19T23:39:07.442Z,90.85
2023-11-19T23:41:34.190Z,90.95
2023-11-19T23:44:00.695Z,90.90
2023-11-19T23:46:27.532Z,90.98
2023-11-19T23:51:26.204Z,91.06
2023-11-19T23:53:53.856Z,91.01
2023-11-19T23:56:20.502Z,91.10
2023-11-19T23:58:47.012Z,90.93
